Time;durP1;ratioP1;P1;durP2;ratioP2;P2;SDS_P1;SDS_P2;PMS_P1;PMS_P2;Temp;Humidity;BMP_temperature;BMP_pressure;BME280_temperature;BME280_humidity;BME280_pressure;Samples;Min_cycle;Max_cycle;Signal;HPM_P1;HPM_P2
2023/08/29 00:02:22;;;;;;;8.57;7.45;;;;;;;22.48;100.00;99914.75;5155153;27;20049;-75
2023/08/29 00:04:48;;;;;;;9.95;7.40;;;;;;;22.32;100.00;99933.22;5155155;27;20507;-74
2023/08/29 00:07:13;;;;;;;9.10;7.90;;;;;;;22.17;100.00;99924.06;5136241;27;20026;-75
2023/08/29 00:09:39;;;;;;;8.30;6.90;;;;;;;22.99;100.00;99946.16;5154247;27;20066;-74
2023/08/29 00:12:05;;;;;;;9.38;7.38;;;;;;;22.87;100.00;99962.69;5155201;27;20091;-74
2023/08/29 00:14:30;;;;;;;8.07;7.10;;;;;;;22.97;100.00;99954.06;5154534;27;20121;-73
2023/08/29 00:16:55;;;;;;;9.75;6.90;;;;;;;22.48;100.00;99885.41;5153317;27;20031;-74
2023/08/29 00:19:21;;;;;;;8.75;7.32;;;;;;;22.69;100.00;99949.41;5135363;27;20411;-74
2023/08/29 00:21:47;;;;;;;7.80;7.00;;;;;;;22.71;100.00;99942.31;5154781;27;20035;-75
2023/08/29 00:24:13;;;;;;;9.45;7.20;;;;;;;22.69;100.00;99936.44;5135819;27;20031;-74
2023/08/29 00:26:39;;;;;;;10.85;7.50;;;;;;;22.59;100.00;99947.63;5154629;27;20037;-74
2023/08/29 00:29:04;;;;;;;9.50;7.22;;;;;;;22.60;100.00;99944.91;5154359;27;20030;-74
2023/08/29 00:31:29;;;;;;;10.15;6.95;;;;;;;22.55;100.00;99948.78;5135873;27;20027;-75
2023/08/29 00:33:55;;;;;;;8.43;7.38;;;;;;;22.23;100.00;99927.94;5154600;27;20031;-74
2023/08/29 00:36:21;;;;;;;8.40;7.22;;;;;;;22.44;100.00;99890.03;5154553;27;20026;-74
2023/08/29 00:38:46;;;;;;;7.95;7.15;;;;;;;22.60;100.00;99931.94;5154040;27;20030;-73
2023/08/29 00:41:12;;;;;;;8.52;7.20;;;;;;;22.37;100.00;99878.47;5154499;27;20030;-75
2023/08/29 00:43:38;;;;;;;12.82;7.05;;;;;;;22.52;100.00;99933.47;5154355;27;20034;-74
2023/08/29 00:46:04;;;;;;;9.82;7.03;;;;;;;22.04;100.00;99887.09;5154521;27;20023;-75
2023/08/29 00:48:31;;;;;;;9.70;7.20;;;;;;;21.94;100.00;99862.03;5154282;27;20030;-76
2023/08/29 00:50:57;;;;;;;9.95;7.18;;;;;;;22.28;100.00;99869.63;5153982;27;20055;-71
2023/08/29 00:53:25;;;;;;;12.18;7.63;;;;;;;22.56;100.00;99921.94;5153971;27;20045;-73
2023/08/29 00:55:50;;;;;;;8.00;7.07;;;;;;;22.59;100.00;99922.53;5153974;27;20033;-75
2023/08/29 00:58:16;;;;;;;8.63;7.13;;;;;;;22.25;100.00;99833.63;5153992;27;20401;-75
2023/08/29 01:00:41;;;;;;;10.00;7.35;;;;;;;22.19;100.00;99872.97;5154008;27;20022;-75
2023/08/29 01:03:07;;;;;;;8.75;6.68;;;;;;;22.48;100.00;99885.41;5153860;27;20054;-74
2023/08/29 01:05:32;;;;;;;11.50;6.90;;;;;;;22.21;100.00;99881.44;5153377;27;20038;-75
2023/08/29 01:08:00;;;;;;;12.55;7.47;;;;;;;22.38;100.00;99919.81;5153268;27;20049;-72
2023/08/29 01:10:36;;;;;;;12.75;7.15;;;;;;;22.31;100.00;99952.31;5154031;27;20026;-74
2023/08/29 01:13:24;;;;;;;9.20;6.40;;;;;;;22.48;100.00;99951.03;5153444;27;20484;-74
2023/08/29 01:15:53;;;;;;;7.57;6.88;;;;;;;22.12;100.00;99891.69;5153765;27;20035;-75
2023/08/29 01:18:19;;;;;;;7.63;6.82;;;;;;;22.32;100.00;99948.78;5153118;27;20034;-73
2023/08/29 01:20:48;;;;;;;9.73;7.10;;;;;;;21.80;100.00;99896.69;5153240;27;20030;-75
2023/08/29 01:23:43;;;;;;;12.00;6.88;;;;;;;22.05;100.00;99909.47;5153409;27;20034;-75
2023/08/29 01:26:16;;;;;;;8.02;6.38;;;;;;;22.17;100.00;99926.66;5152913;27;20244;-75
2023/08/29 01:28:46;;;;;;;9.57;6.70;;;;;;;22.23;100.00;99933.13;5152780;27;20065;-74
2023/08/29 01:31:13;;;;;;;8.23;6.93;;;;;;;21.87;100.00;99872.00;5151363;27;20079;-74
2023/08/29 01:33:42;;;;;;;8.32;6.82;;;;;;;22.46;100.00;99914.06;5153313;27;20039;-74
2023/08/29 01:36:07;;;;;;;10.55;7.35;;;;;;;21.85;100.00;99875.69;5148831;27;20027;-74
2023/08/29 01:38:33;;;;;;;8.82;6.88;;;;;;;22.23;100.00;99923.59;5132608;27;20459;-73
2023/08/29 01:40:58;;;;;;;8.82;7.40;;;;;;;21.52;100.00;99861.72;5113752;27;20027;-73
2023/08/29 01:43:24;;;;;;;11.20;7.00;;;;;;;21.65;100.00;99846.06;5113667;27;20034;-71
2023/08/29 01:45:49;;;;;;;9.65;6.88;;;;;;;22.19;100.00;99893.69;5132045;27;20479;-74
2023/08/29 01:48:15;;;;;;;10.20;6.80;;;;;;;22.13;100.00;99844.09;5132759;27;20023;-75
2023/08/29 01:50:42;;;;;;;10.63;6.75;;;;;;;21.80;100.00;99847.50;5132652;27;20034;-75
2023/08/29 01:53:08;;;;;;;10.05;7.00;;;;;;;21.94;100.00;99860.25;5132155;28;20035;-75
2023/08/29 01:55:34;;;;;;;9.63;7.35;;;;;;;21.93;100.00;99848.25;5132676;28;20042;-73
2023/08/29 01:58:02;;;;;;;7.93;7.10;;;;;;;21.59;100.00;99803.38;5132729;28;20035;-75
2023/08/29 02:00:28;;;;;;;7.93;6.82;;;;;;;21.93;100.00;99870.72;5114702;28;20075;-74
2023/08/29 02:02:53;;;;;;;8.15;6.28;;;;;;;21.72;100.00;99859.38;5132521;28;20591;-75
2023/08/29 02:05:19;;;;;;;9.02;6.70;;;;;;;21.78;100.00;99828.69;5132497;28;20110;-75
2023/08/29 02:07:44;;;;;;;9.63;7.47;;;;;;;21.72;100.00;99836.09;5132276;28;20039;-75
2023/08/29 02:10:10;;;;;;;9.05;6.95;;;;;;;21.65;100.00;99853.03;5114292;28;20035;-74
2023/08/29 02:12:36;;;;;;;10.02;7.78;;;;;;;21.44;100.00;99839.94;5131838;28;20036;-73
2023/08/29 02:15:02;;;;;;;11.15;7.57;;;;;;;21.49;100.00;99864.50;5132068;28;20110;-73
2023/08/29 02:17:28;;;;;;;11.48;8.27;;;;;;;21.00;100.00;99824.25;5114177;28;20023;-75
2023/08/29 02:19:53;;;;;;;13.13;8.93;;;;;;;21.28;100.00;99865.28;5132628;28;20054;-75
2023/08/29 02:22:19;;;;;;;10.73;9.00;;;;;;;21.09;100.00;99850.31;5132731;28;20049;-75
2023/08/29 02:24:47;;;;;;;10.40;8.68;;;;;;;21.15;100.00;99833.50;5114572;28;20496;-75
2023/08/29 02:27:13;;;;;;;12.00;8.43;;;;;;;20.85;100.00;99864.16;5132722;28;20024;-73
2023/08/29 02:29:38;;;;;;;11.77;9.10;;;;;;;20.91;100.00;99846.44;5132855;28;20034;-74
2023/08/29 02:32:04;;;;;;;12.07;9.07;;;;;;;20.81;100.00;99844.63;5146155;27;20529;-74
2023/08/29 02:34:29;;;;;;;15.57;8.85;;;;;;;20.77;100.00;99755.31;5152106;27;20061;-74
2023/08/29 02:36:55;;;;;;;11.57;8.90;;;;;;;21.48;100.00;99815.47;5130781;27;20029;-77
2023/08/29 02:39:20;;;;;;;13.20;9.00;;;;;;;20.78;100.00;99768.13;5112115;28;20055;-76
2023/08/29 02:41:46;;;;;;;13.63;8.52;;;;;;;21.29;100.00;99804.88;5113256;28;20032;-74
2023/08/29 02:44:11;;;;;;;12.07;9.05;;;;;;;21.14;100.00;99830.09;5115242;28;20080;-76
2023/08/29 02:46:36;;;;;;;12.35;9.20;;;;;;;21.19;100.00;99804.75;5115175;28;20031;-74
2023/08/29 02:49:02;;;;;;;11.55;8.95;;;;;;;21.22;100.00;99812.25;5115202;28;20024;-74
2023/08/29 02:51:28;;;;;;;14.32;8.65;;;;;;;21.02;100.00;99773.28;5096397;28;20039;-76
2023/08/29 02:53:53;;;;;;;12.93;8.50;;;;;;;21.24;100.00;99806.97;5115380;28;20067;-76
2023/08/29 02:56:19;;;;;;;10.30;8.48;;;;;;;20.66;100.00;99754.34;5115174;28;20030;-73
2023/08/29 02:58:45;;;;;;;11.52;7.90;;;;;;;20.77;100.00;99761.31;5096692;28;20063;-73
2023/08/29 03:01:12;;;;;;;23.70;8.50;;;;;;;21.18;100.00;99790.16;5114577;28;20130;-74
2023/08/29 03:03:38;;;;;;;13.10;8.02;;;;;;;21.00;100.00;99788.88;5115319;28;20038;-74
2023/08/29 03:06:03;;;;;;;11.82;8.30;;;;;;;20.78;100.00;99793.16;5115375;28;20024;-74
2023/08/29 03:08:28;;;;;;;12.48;8.23;;;;;;;20.91;100.00;99784.41;5129377;28;20027;-74
2023/08/29 03:10:54;;;;;;;13.85;8.48;;;;;;;20.96;100.00;99786.63;5127885;28;20421;-72
2023/08/29 03:13:21;;;;;;;12.60;8.38;;;;;;;20.80;100.00;99780.97;5134249;28;20051;-74
2023/08/29 03:15:46;;;;;;;12.05;8.85;;;;;;;20.84;100.00;99767.69;5147021;27;20113;-71
2023/08/29 03:18:12;;;;;;;10.48;8.70;;;;;;;20.97;100.00;99783.13;5155668;27;20500;-73
2023/08/29 03:20:41;;;;;;;13.95;9.40;;;;;;;20.68;100.00;99738.72;5140340;27;20023;-77
2023/08/29 03:23:06;;;;;;;12.35;8.63;;;;;;;20.75;100.00;99755.44;5149738;27;20114;-75
2023/08/29 03:25:32;;;;;;;12.18;9.10;;;;;;;20.44;100.00;99774.91;5138521;27;20481;-75
2023/08/29 03:27:57;;;;;;;12.13;8.57;;;;;;;20.73;100.00;99793.50;5134576;27;20023;-74
2023/08/29 03:30:25;;;;;;;9.57;7.40;;;;;;;19.93;100.00;99737.28;5113916;27;20038;-74
2023/08/29 03:32:51;;;;;;;9.70;7.45;;;;;;;19.85;100.00;99718.91;5133620;27;20058;-75
2023/08/29 03:35:17;;;;;;;9.75;7.68;;;;;;;20.86;100.00;99794.25;5135400;27;20034;-73
2023/08/29 03:37:43;;;;;;;13.40;7.70;;;;;;;19.92;100.00;99765.78;5121069;27;20027;-75
2023/08/29 03:40:10;;;;;;;11.75;7.72;;;;;;;20.94;100.00;99784.16;5116421;27;20031;-73
2023/08/29 03:42:35;;;;;;;11.50;7.40;;;;;;;20.13;100.00;99765.09;5140002;27;20075;-76
2023/08/29 03:45:01;;;;;;;11.40;8.40;;;;;;;20.23;100.00;99748.06;5116482;27;20039;-76
2023/08/29 03:47:26;;;;;;;12.65;9.35;;;;;;;20.55;100.00;99798.25;5116272;27;20023;-73
2023/08/29 03:49:51;;;;;;;14.07;9.10;;;;;;;20.22;100.00;99764.50;5134140;27;20031;-73
2023/08/29 03:52:26;;;;;;;10.52;8.32;;;;;;;20.31;100.00;99778.50;5133304;27;20051;-74
2023/08/29 03:54:55;;;;;;;12.55;8.45;;;;;;;20.37;100.00;99713.47;5131425;27;20035;-73
2023/08/29 03:57:27;;;;;;;9.77;8.07;;;;;;;20.27;100.00;99682.34;5133954;27;20041;-72
2023/08/29 03:59:53;;;;;;;10.13;8.10;;;;;;;20.76;100.00;99733.03;5133554;27;20035;-71
2023/08/29 04:02:18;;;;;;;11.77;7.97;;;;;;;20.74;100.00;99663.34;5116135;27;20032;-74
2023/08/29 04:04:44;;;;;;;11.88;8.45;;;;;;;20.97;100.00;99739.19;5133713;27;20023;-73
2023/08/29 04:07:10;;;;;;;9.13;8.05;;;;;;;20.77;100.00;99745.00;5115117;27;20030;-73
2023/08/29 04:09:36;;;;;;;9.15;7.82;;;;;;;20.59;100.00;99735.06;5133427;27;20035;-73
2023/08/29 04:12:02;;;;;;;9.55;8.23;;;;;;;20.90;100.00;99732.81;5115493;27;20038;-73
2023/08/29 04:14:27;;;;;;;12.23;8.60;;;;;;;20.86;100.00;99731.41;5133381;27;20038;-72
2023/08/29 04:16:53;;;;;;;12.68;8.57;;;;;;;20.55;100.00;99728.47;5133745;27;20031;-73
2023/08/29 04:19:18;;;;;;;10.10;8.32;;;;;;;20.51;100.00;99708.16;5115197;27;20023;-73
2023/08/29 04:21:44;;;;;;;17.95;8.85;;;;;;;20.65;100.00;99734.63;5115059;27;20126;-73
2023/08/29 04:24:10;;;;;;;11.07;7.82;;;;;;;20.21;100.00;99659.56;5133851;27;20077;-73
2023/08/29 04:26:35;;;;;;;12.52;8.68;;;;;;;20.67;100.00;99662.16;5133633;27;20027;-74
2023/08/29 04:29:01;;;;;;;11.35;8.00;;;;;;;20.88;100.00;99721.78;5133932;27;20019;-73
2023/08/29 04:31:26;;;;;;;14.68;8.45;;;;;;;20.77;100.00;99662.28;5133859;27;20027;-75
2023/08/29 04:33:52;;;;;;;11.48;8.57;;;;;;;20.81;100.00;99661.97;5133849;27;20031;-74
2023/08/29 04:36:17;;;;;;;12.35;8.88;;;;;;;21.43;100.00;99722.66;5099203;28;20028;-74
2023/08/29 04:38:45;;;;;;;12.32;8.75;;;;;;;21.44;100.00;99741.63;5090819;28;20543;-74
2023/08/29 04:41:11;;;;;;;16.15;9.27;;;;;;;21.11;100.00;99666.59;5075122;28;20183;-75
2023/08/29 04:43:36;;;;;;;13.75;8.05;;;;;;;21.31;100.00;99751.25;5105969;28;20034;-76
2023/08/29 04:46:02;;;;;;;12.90;8.80;;;;;;;21.10;100.00;99737.34;5112780;28;20031;-75
2023/08/29 04:48:27;;;;;;;15.63;9.38;;;;;;;21.82;100.00;99724.00;5112030;28;20023;-78
2023/08/29 04:50:53;;;;;;;15.57;9.60;;;;;;;21.15;100.00;99688.69;5116881;27;20398;-77
2023/08/29 04:53:18;;;;;;;18.63;10.05;;;;;;;21.54;100.00;99706.34;5133559;27;20103;-77
2023/08/29 04:55:43;;;;;;;14.65;9.45;;;;;;;21.43;100.00;99737.41;5132590;27;20027;-71
2023/08/29 04:58:09;;;;;;;13.68;9.52;;;;;;;21.27;100.00;99680.00;5133962;27;20019;-77
2023/08/29 05:00:35;;;;;;;15.18;8.55;;;;;;;21.72;100.00;99727.38;5133709;27;20416;-76
2023/08/29 05:03:04;;;;;;;11.93;9.32;;;;;;;21.69;100.00;99725.84;5115344;27;20027;-76
2023/08/29 05:05:29;;;;;;;24.52;9.77;;;;;;;21.74;100.00;99697.00;5114824;27;20417;-75
2023/08/29 05:07:54;;;;;;;21.67;10.05;;;;;;;21.68;100.00;99671.63;5114628;27;20027;-76
2023/08/29 05:10:20;;;;;;;20.25;9.50;;;;;;;21.99;100.00;99712.28;5133072;27;20023;-75
2023/08/29 05:12:45;;;;;;;20.42;10.23;;;;;;;21.97;100.00;99678.75;5133035;27;20035;-77
2023/08/29 05:15:12;;;;;;;26.67;13.32;;;;;;;21.97;100.00;99672.75;5133013;27;20118;-78
2023/08/29 05:17:38;;;;;;;19.48;11.15;;;;;;;22.56;100.00;99667.94;5114861;27;20030;-77
2023/08/29 05:20:04;;;;;;;20.17;12.32;;;;;;;22.97;100.00;99686.91;5114581;27;20019;-77
2023/08/29 05:22:29;;;;;;;21.50;9.50;;;;;;;23.32;100.00;99717.69;5132310;27;20047;-77
2023/08/29 05:24:55;;;;;;;15.65;8.43;;;;;;;22.99;100.00;99676.41;5133263;27;20075;-78
2023/08/29 05:27:20;;;;;;;14.52;8.50;;;;;;;23.36;100.00;99733.81;5115379;27;20485;-77
2023/08/29 05:29:45;;;;;;;15.73;8.75;;;;;;;23.67;100.00;99735.47;5133482;27;20019;-77
2023/08/29 05:32:11;;;;;;;14.80;7.90;;;;;;;23.53;100.00;99683.91;5133174;27;20500;-77
2023/08/29 05:34:37;;;;;;;22.25;10.48;;;;;;;24.00;100.00;99741.16;5114976;27;20043;-76
2023/08/29 05:37:03;;;;;;;14.68;8.35;;;;;;;24.20;100.00;99744.66;5132593;27;20495;-77
2023/08/29 05:39:29;;;;;;;16.85;8.90;;;;;;;24.05;100.00;99700.03;5133346;27;20482;-78
2023/08/29 05:41:54;;;;;;;17.55;9.20;;;;;;;24.45;100.00;99751.09;5114868;27;20030;-77
2023/08/29 05:44:20;;;;;;;18.40;8.63;;;;;;;24.79;100.00;99770.56;5133209;27;20027;-78
2023/08/29 05:46:45;;;;;;;18.08;9.60;;;;;;;24.91;100.00;99756.44;5133256;27;20043;-79
2023/08/29 05:49:11;;;;;;;14.45;8.55;;;;;;;25.08;100.00;99757.53;5132574;27;20057;-77
2023/08/29 05:51:36;;;;;;;11.32;7.70;;;;;;;25.34;100.00;99771.53;5132662;27;20036;-78
2023/08/29 05:54:02;;;;;;;18.38;7.88;;;;;;;24.88;100.00;99689.91;5133108;27;20073;-77
2023/08/29 05:56:27;;;;;;;18.48;8.50;;;;;;;25.62;100.00;99766.28;5142205;28;20031;-77
2023/08/29 05:58:53;;;;;;;17.75;8.13;;;;;;;25.44;100.00;99731.53;5138413;28;20470;-78
2023/08/29 06:01:18;;;;;;;16.00;7.88;;;;;;;25.14;100.00;99747.34;5133170;28;20023;-78
2023/08/29 06:03:43;;;;;;;17.45;7.55;;;;;;;25.46;100.00;99799.09;5132992;28;20019;-78
2023/08/29 06:06:09;;;;;;;15.68;7.40;;;;;;;25.82;100.00;99745.34;5132375;28;20381;-77
2023/08/29 06:08:36;;;;;;;12.77;7.30;;;;;;;26.17;100.00;99795.78;5114870;28;20075;-77
2023/08/29 06:11:03;;;;;;;16.52;7.63;;;;;;;26.41;100.00;99793.44;5133133;28;20121;-77
2023/08/29 06:13:29;;;;;;;16.13;8.40;;;;;;;26.47;100.00;99758.09;5114481;28;20039;-76
2023/08/29 06:15:54;;;;;;;12.20;8.18;;;;;;;26.64;100.00;99797.22;5135110;27;20436;-76
2023/08/29 06:18:20;;;;;;;24.48;9.30;;;;;;;26.82;100.00;99741.66;5137054;27;20027;-80
2023/08/29 06:20:45;;;;;;;12.70;7.75;;;;;;;26.98;100.00;99765.25;5136403;27;20038;-77
2023/08/29 06:23:11;;;;;;;11.93;7.88;;;;;;;27.42;100.00;99775.53;5118934;27;20031;-74
2023/08/29 06:25:36;;;;;;;12.40;7.53;;;;;;;27.19;100.00;99795.28;5136848;27;20038;-76
2023/08/29 06:28:02;;;;;;;13.23;7.50;;;;;;;27.02;100.00;99790.88;5136805;27;20035;-76
2023/08/29 06:30:28;;;;;;;11.20;7.78;;;;;;;27.62;100.00;99789.19;5137039;27;20048;-77
2023/08/29 06:32:54;;;;;;;10.10;7.22;;;;;;;27.84;100.00;99782.56;5147727;27;20027;-75
2023/08/29 06:35:20;;;;;;;8.95;7.05;;;;;;;27.55;100.00;99729.88;5156538;27;20138;-74
2023/08/29 06:37:45;;;;;;;7.20;6.40;;;;;;;28.13;100.00;99731.53;5139317;27;20023;-78
2023/08/29 06:40:11;;;;;;;11.10;5.65;;;;;;;28.46;100.00;99779.50;5136924;27;20035;-80
2023/08/29 06:42:37;;;;;;;11.45;7.03;;;;;;;28.44;100.00;99788.50;5136511;27;20043;-77
2023/08/29 06:45:06;;;;;;;7.15;5.97;;;;;;;28.70;100.00;99794.44;5136459;27;20109;-74
2023/08/29 06:47:32;;;;;;;9.32;6.25;;;;;;;28.96;100.00;99748.78;5135792;27;20019;-74
2023/08/29 06:49:58;;;;;;;9.30;5.10;;;;;;;28.82;100.00;99791.31;5135719;27;20087;-74
2023/08/29 06:52:25;;;;;;;8.07;5.28;;;;;;;29.07;100.00;99803.44;5135529;27;20130;-73
2023/08/29 06:54:51;;;;;;;8.00;5.55;;;;;;;29.01;100.00;99746.50;5117264;27;20027;-76
2023/08/29 06:57:16;;;;;;;7.90;5.50;;;;;;;28.93;100.00;99803.28;5117614;27;20083;-76
2023/08/29 06:59:42;;;;;;;7.40;5.28;;;;;;;28.81;100.00;99804.59;5135974;27;20023;-74
2023/08/29 07:02:07;;;;;;;9.20;5.40;;;;;;;28.62;100.00;99778.75;5135789;27;20117;-73
2023/08/29 07:04:33;;;;;;;7.13;5.60;;;;;;;28.81;100.00;99778.41;5116904;27;20052;-74
2023/08/29 07:06:58;;;;;;;8.30;5.05;;;;;;;29.17;100.00;99786.75;5117545;27;20031;-74
2023/08/29 07:09:27;;;;;;;5.68;5.05;;;;;;;29.72;100.00;99788.44;5117406;27;20060;-76
2023/08/29 07:11:52;;;;;;;7.93;5.32;;;;;;;29.70;100.00;99739.75;5135755;27;20451;-75
2023/08/29 07:14:18;;;;;;;7.07;4.72;;;;;;;29.71;100.00;99739.59;5135599;27;20024;-76
2023/08/29 07:16:43;;;;;;;6.82;4.65;;;;;;;30.15;100.00;99794.16;5117468;27;20027;-75
2023/08/29 07:19:10;;;;;;;6.70;4.60;;;;;;;30.14;100.00;99772.34;5135285;27;20039;-76
2023/08/29 07:21:35;;;;;;;7.90;4.65;;;;;;;29.73;100.00;99736.84;5135667;27;20049;-75
2023/08/29 07:24:01;;;;;;;7.90;4.82;;;;;;;29.96;100.00;99729.81;5135741;27;20477;-76
2023/08/29 07:26:26;;;;;;;5.97;4.80;;;;;;;30.36;100.00;99765.50;5134560;27;20031;-76
2023/08/29 07:28:52;;;;;;;6.72;4.80;;;;;;;30.06;100.00;99756.66;5135938;27;20027;-76
2023/08/29 07:31:18;;;;;;;7.03;4.90;;;;;;;30.21;100.00;99705.03;5135752;27;20034;-74
2023/08/29 07:33:44;;;;;;;7.10;5.10;;;;;;;30.50;100.00;99686.00;5135321;27;20027;-76
2023/08/29 07:36:10;;;;;;;9.80;4.93;;;;;;;31.02;100.00;99702.59;5135570;27;20034;-75
2023/08/29 07:38:35;;;;;;;8.77;4.82;;;;;;;30.83;100.00;99689.13;5135371;27;20027;-76
2023/08/29 07:41:01;;;;;;;7.30;4.70;;;;;;;30.56;100.00;99654.63;5134937;27;20037;-75
2023/08/29 07:43:26;;;;;;;8.23;4.70;;;;;;;31.16;100.00;99625.56;5123427;27;20099;-74
2023/08/29 07:45:53;;;;;;;8.75;4.80;;;;;;;30.92;100.00;99653.94;5114683;28;20051;-75
2023/08/29 07:48:19;;;;;;;7.78;4.47;;;;;;;31.19;100.00;99630.47;5114554;28;20110;-76
2023/08/29 07:50:45;;;;;;;9.73;4.75;;;;;;;31.10;100.00;99638.63;5114285;28;20034;-75
2023/08/29 07:53:10;;;;;;;7.65;4.60;;;;;;;30.80;100.00;99635.97;5114267;28;20027;-75
2023/08/29 07:55:36;;;;;;;8.77;4.72;;;;;;;31.36;100.00;99625.81;5114128;28;20027;-75
2023/08/29 07:58:02;;;;;;;7.57;4.43;;;;;;;31.37;100.00;99640.59;5114512;28;20035;-75
2023/08/29 08:00:28;;;;;;;9.25;5.32;;;;;;;32.48;100.00;99625.16;5113442;28;20085;-75
2023/08/29 08:02:54;;;;;;;8.73;4.90;;;;;;;31.78;100.00;99660.09;5113985;28;20031;-75
2023/08/29 08:05:19;;;;;;;6.88;5.10;;;;;;;32.25;100.00;99649.03;5114338;28;20027;-76
2023/08/29 08:07:45;;;;;;;9.15;4.95;;;;;;;32.46;100.00;99637.69;5096301;28;20104;-75
2023/08/29 08:10:12;;;;;;;7.97;5.10;;;;;;;31.82;100.00;99661.34;5096054;28;20545;-75
2023/08/29 08:12:39;;;;;;;7.90;5.13;;;;;;;32.03;100.00;99653.50;5114136;28;20114;-75
2023/08/29 08:15:06;;;;;;;7.68;5.15;;;;;;;32.48;100.00;99572.47;5113545;28;20068;-75
2023/08/29 08:17:32;;;;;;;8.27;4.97;;;;;;;32.60;100.00;99634.97;5114075;28;20028;-76
2023/08/29 08:19:58;;;;;;;10.82;5.93;;;;;;;31.77;100.00;99616.41;5114356;28;20023;-74
2023/08/29 08:22:24;;;;;;;11.60;5.60;;;;;;;32.06;100.00;99582.06;5113882;28;20031;-76
2023/08/29 08:24:49;;;;;;;12.60;5.50;;;;;;;32.64;100.00;99616.97;5114265;28;20115;-74
2023/08/29 08:27:16;;;;;;;14.63;6.28;;;;;;;33.45;100.00;99597.69;5114928;28;20027;-75
2023/08/29 08:29:42;;;;;;;12.82;6.80;;;;;;;32.88;100.00;99633.09;5115585;28;20031;-75
2023/08/29 08:32:08;;;;;;;12.23;7.53;;;;;;;33.04;100.00;99632.03;5113823;28;20405;-75
2023/08/29 08:34:33;;;;;;;9.32;7.10;;;;;;;33.13;100.00;99625.56;5114735;28;20035;-76
2023/08/29 08:36:58;;;;;;;11.48;8.00;;;;;;;32.87;100.00;99544.53;5113390;28;20042;-75
2023/08/29 08:39:24;;;;;;;11.93;8.35;;;;;;;32.74;100.00;99620.88;5112416;28;20126;-75
2023/08/29 08:41:51;;;;;;;9.65;7.97;;;;;;;33.23;100.00;99602.28;5113804;28;20444;-75
2023/08/29 08:44:20;;;;;;;14.13;8.38;;;;;;;32.74;100.00;99547.13;5112548;28;20037;-77
2023/08/29 08:46:46;;;;;;;14.88;8.52;;;;;;;33.87;100.00;99585.00;5113127;28;20429;-76
2023/08/29 08:49:12;;;;;;;12.10;8.30;;;;;;;33.57;100.00;99552.09;5113512;28;20126;-77
2023/08/29 08:51:38;;;;;;;10.10;8.43;;;;;;;33.86;100.00;99511.31;5113467;28;20052;-75
2023/08/29 08:54:07;;;;;;;8.40;7.28;;;;;;;34.12;100.00;99547.47;5112531;28;20031;-75
2023/08/29 08:56:32;;;;;;;11.13;7.85;;;;;;;33.37;100.00;99530.13;5094895;28;20038;-76
2023/08/29 08:58:58;;;;;;;21.20;8.20;;;;;;;34.30;100.00;99500.09;5113219;28;20067;-76
2023/08/29 09:01:24;;;;;;;15.15;8.20;;;;;;;33.50;100.00;99588.19;5094824;28;20040;-76
2023/08/29 09:03:50;;;;;;;7.97;6.90;;;;;;;33.43;100.00;99546.97;5111864;28;20409;-75
2023/08/29 09:06:16;;;;;;;10.18;7.13;;;;;;;34.09;100.00;99495.91;5112010;28;20023;-75
2023/08/29 09:08:41;;;;;;;9.18;7.00;;;;;;;33.05;100.00;99483.41;5112524;28;20069;-75
2023/08/29 09:11:07;;;;;;;10.23;7.35;;;;;;;33.15;100.00;99529.47;5113415;28;20038;-76
2023/08/29 09:13:32;;;;;;;8.30;7.05;;;;;;;33.47;100.00;99564.81;5113511;28;20024;-75
2023/08/29 09:15:58;;;;;;;11.80;7.53;;;;;;;34.61;100.00;99518.72;5112566;28;20034;-76
2023/08/29 09:18:31;;;;;;;13.40;8.27;;;;;;;34.16;100.00;99494.03;5112722;28;20027;-75
2023/08/29 09:21:00;;;;;;;11.10;8.07;;;;;;;34.19;100.00;99487.53;5113098;28;20032;-75
2023/08/29 09:23:29;;;;;;;10.40;8.07;;;;;;;34.76;100.00;99532.50;5112701;28;20130;-74
2023/08/29 09:25:56;;;;;;;9.82;7.57;;;;;;;34.65;100.00;99482.94;5112979;28;20035;-76
2023/08/29 09:28:30;;;;;;;10.70;7.25;;;;;;;35.00;100.00;99471.03;5113095;28;20095;-80
2023/08/29 09:31:06;;;;;;;10.50;7.15;;;;;;;34.88;100.00;99452.31;5113977;28;20031;-79
2023/08/29 09:33:33;;;;;;;9.73;7.40;;;;;;;35.27;100.00;99516.63;5113022;28;20100;-77
2023/08/29 09:36:02;;;;;;;8.40;6.35;;;;;;;34.43;100.00;99545.00;5113844;28;20035;-79
2023/08/29 09:38:29;;;;;;;9.02;6.90;;;;;;;35.23;100.00;99495.09;5113972;28;20085;-76
2023/08/29 09:40:55;;;;;;;11.35;6.97;;;;;;;34.66;100.00;99471.38;5112851;28;20049;-78
2023/08/29 09:43:21;;;;;;;11.48;7.10;;;;;;;34.98;100.00;99509.28;5094553;28;20040;-76
2023/08/29 09:45:54;;;;;;;11.05;7.55;;;;;;;35.06;100.00;99449.03;5114677;28;20108;-75
2023/08/29 09:48:20;;;;;;;7.13;6.35;;;;;;;34.53;100.00;99468.75;5112405;28;20035;-74
2023/08/29 09:50:47;;;;;;;7.88;6.03;;;;;;;34.92;100.00;99468.59;5115028;28;20028;-75
2023/08/29 09:53:17;;;;;;;11.23;7.10;;;;;;;35.25;100.00;99498.31;5134221;28;20036;-73
2023/08/29 09:55:55;;;;;;;11.00;6.50;;;;;;;34.79;100.00;99516.22;5126848;28;20023;-77
2023/08/29 09:58:27;;;;;;;13.05;7.30;;;;;;;34.40;100.00;99476.72;5099700;28;20040;-78
2023/08/29 10:00:53;;;;;;;11.68;6.40;;;;;;;34.59;100.00;99515.47;5097114;28;20153;-78
2023/08/29 10:03:20;;;;;;;7.45;6.50;;;;;;;34.40;100.00;99482.00;5112876;28;20032;-78
2023/08/29 10:05:45;;;;;;;9.07;6.35;;;;;;;35.13;100.00;99475.41;5112312;28;20451;-78
2023/08/29 10:08:11;;;;;;;8.63;6.50;;;;;;;35.00;100.00;99443.78;5111957;28;20088;-77
2023/08/29 10:10:37;;;;;;;9.40;6.43;;;;;;;35.38;100.00;99468.34;5112206;28;20042;-77
2023/08/29 10:13:04;;;;;;;8.23;6.50;;;;;;;34.60;100.00;99469.56;5093805;28;20319;-79
2023/08/29 10:15:32;;;;;;;8.13;6.00;;;;;;;35.10;100.00;99481.91;5112703;28;20142;-79
2023/08/29 10:17:58;;;;;;;9.27;6.30;;;;;;;34.65;100.00;99461.81;5111366;28;20085;-79
2023/08/29 10:20:26;;;;;;;10.23;6.40;;;;;;;35.28;100.00;99492.59;5111991;28;20070;-78
2023/08/29 10:22:54;;;;;;;8.20;5.68;;;;;;;34.94;100.00;99450.69;5112237;28;20566;-77
2023/08/29 10:25:21;;;;;;;8.70;5.72;;;;;;;34.85;100.00;99491.59;5112572;28;20028;-79
2023/08/29 10:27:48;;;;;;;10.93;5.35;;;;;;;35.32;100.00;99430.31;5111945;28;20027;-78
2023/08/29 10:30:14;;;;;;;8.00;5.78;;;;;;;35.28;100.00;99481.22;5111699;28;20043;-77
2023/08/29 10:32:41;;;;;;;6.53;5.45;;;;;;;35.78;100.00;99464.34;5112180;28;20028;-77
2023/08/29 10:35:16;;;;;;;11.38;5.80;;;;;;;35.77;100.00;99409.81;5111907;28;20024;-77
2023/08/29 10:37:42;;;;;;;7.82;5.50;;;;;;;36.01;100.00;99443.41;5111583;28;20035;-75
2023/08/29 10:40:10;;;;;;;9.25;5.97;;;;;;;35.46;100.00;99400.09;5111972;28;20027;-78
2023/08/29 10:42:53;;;;;;;9.13;5.07;;;;;;;35.08;100.00;99399.38;5112362;28;20024;-77
2023/08/29 10:45:20;;;;;;;8.82;5.40;;;;;;;34.89;100.00;99434.63;5112130;28;20028;-78
2023/08/29 10:47:46;;;;;;;7.82;5.18;;;;;;;35.16;100.00;99406.22;5111870;28;20118;-77
2023/08/29 10:50:25;;;;;;;9.32;5.30;;;;;;;35.69;100.00;99431.25;5112100;28;20024;-79
2023/08/29 10:52:56;;;;;;;7.85;5.65;;;;;;;35.95;100.00;99420.44;5111721;28;20126;-78
2023/08/29 10:55:31;;;;;;;7.22;5.47;;;;;;;36.12;100.00;99415.34;5094232;28;20027;-78
2023/08/29 10:57:58;;;;;;;8.45;5.35;;;;;;;36.87;100.00;99412.19;5111685;28;20031;-79
2023/08/29 11:00:39;;;;;;;8.43;5.53;;;;;;;36.80;100.00;99405.34;5093821;28;20030;-79
2023/08/29 11:03:05;;;;;;;7.38;5.53;;;;;;;36.04;100.00;99365.31;5096890;28;20031;-80
2023/08/29 11:05:31;;;;;;;10.13;5.53;;;;;;;36.51;100.00;99417.53;5115602;28;20027;-79
2023/08/29 11:08:21;;;;;;;6.60;5.30;;;;;;;36.52;100.00;99413.88;5097193;28;20055;-79
2023/08/29 11:11:22;;;;;;;8.43;5.30;;;;;;;36.82;100.00;99397.97;5115174;28;20027;-78
2023/08/29 11:13:58;;;;;;;8.27;5.30;;;;;;;36.26;100.00;99419.47;5032896;28;20099;-79
2023/08/29 11:16:24;;;;;;;6.63;4.93;;;;;;;35.74;100.00;99410.22;5088366;28;20040;-78
2023/08/29 11:19:04;;;;;;;9.65;5.25;;;;;;;36.55;100.00;99326.75;5115383;28;20119;-74
2023/08/29 11:21:30;;;;;;;7.95;5.22;;;;;;;36.66;100.00;99316.41;5115615;28;20024;-80